METAR Data
IDs: Format: Raw Decoded Include TAF

Data at: 1756 UTC 06 Jul 2020

KM02 061735Z AUTO 13004KT 10SM CLR 29/23 A3001 RMK A01
KM02 061715Z AUTO VRB04KT 10SM CLR 29/23 A3002 RMK A01
KM02 061655Z AUTO 00000KT 10SM CLR 28/22 A3003 RMK A01
KM02 061635Z AUTO 09004KT 10SM CLR 28/21 A3003 RMK A01
KM02 061615Z AUTO VRB05KT 10SM CLR 29/22 A3003 RMK A01
KM02 061555Z AUTO VRB04KT 10SM CLR 28/21 A3003 RMK A01
KM02 061535Z AUTO VRB05KT 10SM CLR 27/21 A3003 RMK A01
KM02 061515Z AUTO VRB05KT 10SM CLR 27/21 A3003 RMK A01
KM02 061455Z AUTO 00000KT 10SM CLR 26/21 A3004 RMK A01
KM02 061435Z AUTO VRB06KT 10SM CLR 26/21 A3003 RMK A01
KM02 061415Z AUTO 10004KT 10SM CLR 25/21 A3003 RMK A01
KM02 061355Z AUTO VRB05KT 10SM CLR 25/21 A3003 RMK A01
KM02 061335Z AUTO 07006KT 10SM CLR 24/21 A3002 RMK A01
KM02 061315Z AUTO 07004KT 10SM CLR 24/21 A3002 RMK A01
KM02 061255Z AUTO 12004KT 10SM CLR 23/21 A3002 RMK A01
KM02 061235Z AUTO 00000KT 10SM FEW070 FEW080 22/21 A3002 RMK A01
KM02 061215Z AUTO VRB04KT 10SM SCT070 BKN080 22/21 A3002 RMK A01
KM02 061155Z AUTO 00000KT 10SM FEW070 SCT080 SCT090 21/21 A3001 RMK A01
KM02 061135Z AUTO 07005KT 10SM SCT070 OVC085 21/21 A3001 RMK A01
KM02 061115Z AUTO 00000KT 9SM BKN065 BKN075 OVC085 21/21 A3000 RMK A01
KM02 061055Z AUTO 05003KT 9SM BKN060 OVC070 21/21 A3000 RMK A01
KM02 061035Z AUTO 00000KT 8SM OVC060 21/20 A2999 RMK A01
KM02 061015Z AUTO 36003KT 6SM BR SCT060 BKN080 OVC085 20/20 A2998 RMK A01
KM02 060955Z AUTO 00000KT 9SM SCT055 BKN075 OVC085 21/21 A2998 RMK A01
KM02 060935Z AUTO 00000KT 10SM BKN055 OVC070 21/21 A2998 RMK A01
KM02 060915Z AUTO 00000KT 10SM BKN055 BKN075 21/21 A2997 RMK A01
KM02 060855Z AUTO 00000KT 9SM OVC050 21/20 A2996 RMK A01
KM02 060835Z AUTO 06003KT 7SM OVC050 21/21 A2996 RMK A01
KM02 060815Z AUTO 06004KT 8SM SCT050 BKN055 21/21 A2995 RMK A01
KM02 060755Z AUTO 03005KT 5SM BR SCT050 SCT055 20/20 A2994 RMK A01
KM02 060735Z AUTO 00000KT 6SM BR FEW040 SCT049 20/20 A2994 RMK A01
KM02 060715Z AUTO 00000KT 3SM BR SCT041 SCT048 20/20 A2994 RMK A01
KM02 060655Z AUTO 00000KT 5SM BR FEW044 SCT050 20/20 A2993 RMK A01
KM02 060635Z AUTO 00000KT 8SM FEW044 FEW050 21/21 A2994 RMK A01
KM02 060615Z AUTO 00000KT 9SM CLR 21/21 A2994 RMK A01
KM02 060555Z AUTO 00000KT 10SM CLR 21/21 A2995 RMK A01
KM02 060535Z AUTO 17004KT 10SM FEW047 22/21 A2996 RMK A01
KM02 060515Z AUTO 00000KT 9SM FEW039 FEW045 21/21 A2996 RMK A01
KM02 060455Z AUTO 00000KT 10SM FEW031 FEW038 SCT049 21/21 A2996 RMK A01
KM02 060435Z AUTO 00000KT 10SM FEW049 22/21 A2996 RMK A01
KM02 060415Z AUTO 00000KT 10SM CLR 21/21 A2996 RMK A01
KM02 060355Z AUTO 00000KT 10SM CLR 22/22 A2996 RMK A01
KM02 060335Z AUTO VRB03KT 10SM CLR 22/22 A2996 RMK A01
KM02 060315Z AUTO 07005KT 9SM FEW035 SCT045 22/22 A2996 RMK A01
KM02 060255Z AUTO 00000KT 9SM FEW034 FEW040 SCT046 22/22 A2996 RMK A01
KM02 060235Z AUTO 08003KT 10SM SCT120 22/22 A2997 RMK A01
KM02 060215Z AUTO 00000KT 10SM FEW026 BKN120 23/22 A2997 RMK A01
KM02 060155Z AUTO 00000KT 10SM BKN026 BKN120 23/22 A2997 RMK A01
KM02 060135Z AUTO 17004KT 10SM FEW110 23/22 A2997 RMK A01
KM02 060115Z AUTO 17004KT 10SM SCT110 23/22 A2998 RMK A01
KM02 060055Z AUTO 00000KT 10SM CLR 23/22 A2996 RMK A01
KM02 060035Z AUTO 08003KT 10SM CLR 23/22 A2995 RMK A01
KM02 060015Z AUTO 00000KT 10SM CLR 24/22 A2995 RMK A01
KM02 052355Z AUTO VRB05KT 10SM CLR 24/22 A2994 RMK A01
KM02 052335Z AUTO 07005KT 10SM CLR 24/22 A2994 RMK A01
KM02 052315Z AUTO 06008KT 050V110 10SM FEW080 25/23 A2994 RMK A01
KM02 052255Z AUTO 04010G19KT 10SM SCT080 SCT120 24/22 A2994 RMK A01
KM02 052235Z AUTO 36004KT 10SM CLR 25/23 A2994 RMK A01
KM02 052215Z AUTO 04006KT 10SM CLR 25/23 A2992 RMK A01
KM02 052150Z AUTO 00000KT 10SM CLR 25/23 A2991 RMK A01
KM02 052135Z AUTO 00000KT 10SM CLR 24/23 A2991 RMK A01
KM02 052115Z AUTO 00000KT 10SM CLR 24/23 A2991 RMK A01
KM02 052055Z AUTO 31004KT 8SM CLR 23/22 A2992 RMK A01
KM02 052035Z AUTO 26008KT 9SM CLR 23/22 A2993 RMK A01
KM02 052015Z AUTO 12004KT 10SM CLR 23/22 A2993 RMK A01
KM02 051955Z AUTO 00000G10KT 9SM CLR 22/21 A2993 RMK A01 P0034
KM02 051935Z AUTO 07006G11KT 4SM BR FEW004 SCT031 SCT041 22/20 A2993 RMK A01
KM02 051915Z AUTO 16009G17KT 120V180 1 3/4SM HZ BKN004 BKN029 OVC080 23/20 A2996 RMK A01 VIS 1V4
KM02 051855Z AUTO 07007KT 1/4SM HZ BKN004 BKN024 OVC029 24/21 A2995 RMK A01 P0032
KM02 051835Z AUTO 23008KT 5SM HZ SCT029 SCT035 SCT055 28/25 A2995 RMK A01
KM02 051815Z AUTO 00000KT 10SM FEW030 FEW039 SCT045 30/24 A2995 RMK A01
KM02 051755Z AUTO 00000KT 10SM FEW036 SCT045 SCT055 30/24 A2996 RMK A01
KM02 051735Z AUTO 00000KT 10SM FEW031 31/23 A2996 RMK A01
KM02 051715Z AUTO 00000KT 10SM FEW028 31/24 A2996 RMK A01
KM02 051655Z AUTO VRB03KT 9SM CLR 30/24 A2997 RMK A01
KM02 051635Z AUTO VRB03KT 10SM CLR 30/24 A2997 RMK A01
KM02 051615Z AUTO 00000KT 10SM CLR 29/24 A2998 RMK A01
KM02 051555Z AUTO 00000KT 10SM FEW021 FEW110 29/24 A2998 RMK A01
KM02 051535Z AUTO 00000KT 10SM FEW110 28/24 A2998 RMK A01
KM02 051515Z AUTO 00000KT 10SM FEW110 28/23 A2998 RMK A01
KM02 051455Z AUTO 19004KT 10SM CLR 27/23 A2997 RMK A01
KM02 051435Z AUTO 21004KT 10SM CLR 27/23 A2997 RMK A01
KM02 051415Z AUTO 24004KT 10SM CLR 27/23 A2997 RMK A01
KM02 051355Z AUTO 00000KT 10SM CLR 26/23 A2997 RMK A01
KM02 051335Z AUTO 00000KT 10SM CLR 25/23 A2997 RMK A01
KM02 051315Z AUTO 00000KT 10SM CLR 24/22 A2997 RMK A01
KM02 051255Z AUTO 00000KT 9SM CLR 24/22 A2997 RMK A01
KM02 051235Z AUTO 00000KT 10SM CLR 24/22 A2997 RMK A01
KM02 051215Z AUTO 00000KT 9SM CLR 23/22 A2996 RMK A01
KM02 051155Z AUTO 00000KT 8SM CLR 22/22 A2996 RMK A01
KM02 051135Z AUTO 00000KT 8SM CLR 21/21 A2995 RMK A01
KM02 051115Z AUTO 00000KT 6SM BR CLR 21/21 A2995 RMK A01
KM02 051055Z AUTO 00000KT 6SM BR CLR 20/20 A2994 RMK A01
KM02 051035Z AUTO 00000KT 8SM CLR 21/21 A2993 RMK A01
KM02 051015Z AUTO 00000KT 9SM CLR 21/21 A2992 RMK A01
KM02 050955Z AUTO 00000KT 10SM FEW045 22/21 A2991 RMK A01
KM02 050935Z AUTO 00000KT 10SM FEW044 22/21 A2991 RMK A01
KM02 050915Z AUTO 00000KT 10SM FEW044 21/21 A2990 RMK A01
KM02 050855Z AUTO 00000KT 10SM FEW048 21/21 A2990 RMK A01
KM02 050835Z AUTO 00000KT 10SM CLR 21/21 A2991 RMK A01
KM02 050815Z AUTO 00000KT 10SM CLR 21/21 A2991 RMK A01
KM02 050755Z AUTO 00000KT 10SM CLR 21/21 A2991 RMK A01
KM02 050735Z AUTO 00000KT 10SM CLR 21/21 A2991 RMK A01
KM02 050715Z AUTO 00000KT 10SM CLR 21/21 A2991 RMK A01
KM02 050655Z AUTO 00000KT 10SM CLR 22/21 A2991 RMK A01
KM02 050635Z AUTO 00000KT 10SM FEW060 22/21 A2992 RMK A01
KM02 050615Z AUTO 00000KT 10SM CLR 23/21 A2992 RMK A01